Time;durP1;ratioP1;P1;durP2;ratioP2;P2;SDS_P1;SDS_P2;PMS_P1;PMS_P2;Temp;Humidity;BMP_temperature;BMP_pressure;BME280_temperature;BME280_humidity;BME280_pressure;Samples;Min_cycle;Max_cycle;Signal;HPM_P1;HPM_P2
2021/05/16 00:02:09;;;;;;;0.53;0.50;;;9.00;99.90;;;;;;5134221;27;20442;-81
2021/05/16 00:04:36;;;;;;;0.67;0.67;;;9.00;99.90;;;;;;5134500;27;20442;-80
2021/05/16 00:07:02;;;;;;;1.57;0.63;;;9.00;99.90;;;;;;5134214;27;20469;-80
2021/05/16 00:09:30;;;;;;;2.30;0.60;;;9.00;99.90;;;;;;5134422;27;20461;-76
2021/05/16 00:11:56;;;;;;;2.30;0.67;;;8.90;99.90;;;;;;5134375;27;20442;-76
2021/05/16 00:14:22;;;;;;;0.83;0.60;;;9.00;99.90;;;;;;5134381;27;20427;-76
2021/05/16 00:16:49;;;;;;;3.73;0.60;;;9.00;99.90;;;;;;5134302;27;20850;-76
2021/05/16 00:19:15;;;;;;;1.10;0.77;;;9.00;99.90;;;;;;5134159;27;20482;-76
2021/05/16 00:21:42;;;;;;;2.30;0.60;;;9.00;99.90;;;;;;5134286;27;20518;-76
2021/05/16 00:24:09;;;;;;;0.77;0.77;;;9.00;99.90;;;;;;5134235;27;20446;-76
2021/05/16 00:26:36;;;;;;;1.50;0.70;;;9.00;99.90;;;;;;5134210;27;20492;-76
2021/05/16 00:29:02;;;;;;;1.70;0.90;;;9.10;99.90;;;;;;5134187;27;20801;-75
2021/05/16 00:31:28;;;;;;;1.90;0.70;;;9.10;99.90;;;;;;5138389;27;20445;-80
2021/05/16 00:33:56;;;;;;;1.00;0.87;;;9.10;99.90;;;;;;5138298;27;20445;-81
2021/05/16 00:36:22;;;;;;;3.53;0.90;;;9.20;99.90;;;;;;5138302;27;20446;-81
2021/05/16 00:38:48;;;;;;;0.60;0.60;;;9.20;99.90;;;;;;5138095;27;20482;-81
2021/05/16 00:41:15;;;;;;;1.00;0.80;;;9.20;99.90;;;;;;5138155;27;20450;-81
2021/05/16 00:43:42;;;;;;;1.33;0.60;;;9.10;99.90;;;;;;5137835;27;20963;-81
2021/05/16 00:46:09;;;;;;;0.90;0.53;;;9.10;99.90;;;;;;5137756;27;20787;-81
2021/05/16 00:48:36;;;;;;;1.57;0.60;;;9.10;99.90;;;;;;5137997;27;20458;-81
2021/05/16 00:51:02;;;;;;;0.60;0.60;;;9.10;99.90;;;;;;5138005;27;20441;-81
2021/05/16 00:53:28;;;;;;;2.33;0.67;;;9.10;99.90;;;;;;5137977;27;20462;-81
2021/05/16 00:55:57;;;;;;;2.77;1.00;;;9.20;99.90;;;;;;5137646;27;20438;-81
2021/05/16 00:58:23;;;;;;;3.30;0.80;;;9.20;99.90;;;;;;5137469;27;20996;-81
2021/05/16 01:00:51;;;;;;;3.67;0.87;;;9.20;99.90;;;;;;5137805;27;20442;-81
2021/05/16 01:03:20;;;;;;;0.80;0.77;;;9.20;99.90;;;;;;5137799;27;20805;-84
2021/05/16 01:05:47;;;;;;;2.70;0.67;;;9.20;99.90;;;;;;5137766;27;20442;-81
2021/05/16 01:08:14;;;;;;;1.20;0.80;;;9.20;99.90;;;;;;5137181;27;20559;-81
2021/05/16 01:10:42;;;;;;;1.70;0.73;;;9.20;99.90;;;;;;5137636;27;20453;-81
2021/05/16 01:13:10;;;;;;;0.90;0.80;;;9.20;99.90;;;;;;5137593;27;20453;-81
2021/05/16 01:15:39;;;;;;;4.23;0.83;;;9.20;99.90;;;;;;5137200;27;20885;-81
2021/05/16 01:18:06;;;;;;;2.13;0.80;;;9.10;99.90;;;;;;5137060;27;20478;-81
2021/05/16 01:20:34;;;;;;;1.20;0.70;;;9.20;99.90;;;;;;5137459;27;20442;-80
2021/05/16 01:23:04;;;;;;;0.70;0.70;;;9.10;99.90;;;;;;5138166;27;20764;-81
2021/05/16 01:25:32;;;;;;;1.60;0.70;;;9.10;99.90;;;;;;5137597;27;20442;-80
2021/05/16 01:27:59;;;;;;;2.50;0.70;;;9.10;99.90;;;;;;5137254;27;20893;-81
2021/05/16 01:30:25;;;;;;;2.90;0.80;;;9.10;99.90;;;;;;5136956;27;20933;-83
2021/05/16 01:32:52;;;;;;;1.10;1.00;;;9.10;99.90;;;;;;5137261;27;20866;-83
2021/05/16 01:35:19;;;;;;;1.93;0.90;;;9.20;99.90;;;;;;5137201;27;20494;-84
2021/05/16 01:37:46;;;;;;;1.53;0.87;;;9.20;99.90;;;;;;5137101;27;20445;-83
2021/05/16 01:40:15;;;;;;;1.50;0.87;;;9.20;99.90;;;;;;5136538;27;20488;-84
2021/05/16 01:42:46;;;;;;;1.30;0.70;;;9.20;99.90;;;;;;5137042;27;20450;-83
2021/05/16 01:45:15;;;;;;;1.67;1.07;;;9.20;99.90;;;;;;5137123;27;20422;-81
2021/05/16 01:47:42;;;;;;;1.50;0.80;;;9.20;99.90;;;;;;5136972;27;20476;-80
2021/05/16 01:50:11;;;;;;;1.23;0.90;;;9.20;99.90;;;;;;5136796;27;20458;-81
2021/05/16 01:52:39;;;;;;;0.90;0.90;;;9.20;99.90;;;;;;5136851;27;20438;-82
2021/05/16 01:55:06;;;;;;;0.80;0.73;;;9.30;99.90;;;;;;5136790;27;20438;-81
2021/05/16 01:57:34;;;;;;;1.17;0.80;;;9.30;99.90;;;;;;5136749;27;20422;-81
2021/05/16 02:00:01;;;;;;;1.67;0.80;;;9.30;99.90;;;;;;5136539;27;20502;-81
2021/05/16 02:02:28;;;;;;;1.17;0.97;;;9.30;99.90;;;;;;5136310;27;20499;-82
2021/05/16 02:04:54;;;;;;;2.67;1.20;;;9.30;99.90;;;;;;5136579;27;20454;-81
2021/05/16 02:07:21;;;;;;;2.70;0.90;;;9.20;99.90;;;;;;5136303;27;20478;-76
2021/05/16 02:09:47;;;;;;;2.83;1.13;;;9.30;99.90;;;;;;5136466;27;20458;-76
2021/05/16 02:12:17;;;;;;;2.37;1.13;;;9.30;99.90;;;;;;5136459;27;20510;-76
2021/05/16 02:14:45;;;;;;;2.40;0.90;;;9.20;99.90;;;;;;5136102;27;20581;-76
2021/05/16 02:17:12;;;;;;;3.00;0.80;;;9.10;99.90;;;;;;5136352;27;20574;-76
2021/05/16 02:19:39;;;;;;;0.93;0.83;;;9.10;99.90;;;;;;5135835;27;20580;-76
2021/05/16 02:22:07;;;;;;;1.87;0.80;;;9.10;99.90;;;;;;5136255;27;20454;-76
2021/05/16 02:24:33;;;;;;;1.27;0.80;;;9.10;99.90;;;;;;5136202;27;20495;-76
2021/05/16 02:27:00;;;;;;;1.00;0.90;;;9.10;99.90;;;;;;5136175;27;20438;-76
2021/05/16 02:29:27;;;;;;;0.80;0.80;;;9.20;99.90;;;;;;5136054;27;20458;-81
2021/05/16 02:31:55;;;;;;;0.80;0.80;;;9.20;99.90;;;;;;5136049;27;20434;-81
2021/05/16 02:34:21;;;;;;;1.10;1.00;;;9.20;99.90;;;;;;5135990;27;20446;-81
2021/05/16 02:36:48;;;;;;;2.00;0.90;;;9.30;99.90;;;;;;5135944;27;20454;-81
2021/05/16 02:39:14;;;;;;;2.10;1.00;;;9.30;99.90;;;;;;5135713;27;20482;-81
2021/05/16 02:41:41;;;;;;;2.60;0.80;;;9.30;99.90;;;;;;5135857;27;20446;-81
2021/05/16 02:44:07;;;;;;;1.90;1.30;;;9.30;99.90;;;;;;5135784;27;20781;-81
2021/05/16 02:46:34;;;;;;;1.87;1.03;;;9.30;99.90;;;;;;5135737;27;20797;-81
2021/05/16 02:49:01;;;;;;;1.43;1.10;;;9.40;99.90;;;;;;5135303;27;20462;-81
2021/05/16 02:51:27;;;;;;;1.10;1.00;;;9.40;99.90;;;;;;5134936;27;20964;-81
2021/05/16 02:53:54;;;;;;;2.20;1.20;;;9.40;99.90;;;;;;5135204;27;20445;-81
2021/05/16 02:56:20;;;;;;;2.30;0.90;;;9.40;99.90;;;;;;5135572;27;20442;-81
2021/05/16 02:58:46;;;;;;;1.77;0.80;;;9.40;99.90;;;;;;5135368;27;20843;-81
2021/05/16 03:01:13;;;;;;;2.27;1.10;;;9.40;99.90;;;;;;5135458;27;20516;-81
2021/05/16 03:03:40;;;;;;;2.60;1.00;;;9.40;99.90;;;;;;5135422;27;20453;-81
2021/05/16 03:06:07;;;;;;;1.23;1.00;;;9.40;99.90;;;;;;5135413;27;20468;-81
2021/05/16 03:08:34;;;;;;;7.80;1.40;;;9.50;99.90;;;;;;5134854;27;20474;-81
2021/05/16 03:11:01;;;;;;;2.43;1.23;;;9.40;99.90;;;;;;5135256;27;20463;-81
2021/05/16 03:13:27;;;;;;;1.23;0.80;;;9.50;99.90;;;;;;5135209;27;20446;-81
2021/05/16 03:15:53;;;;;;;2.60;1.10;;;9.50;99.90;;;;;;5135207;27;20442;-81
2021/05/16 03:18:20;;;;;;;0.97;0.80;;;9.50;99.90;;;;;;5134993;27;20531;-81
2021/05/16 03:20:46;;;;;;;3.13;0.70;;;9.40;99.90;;;;;;5135103;27;20495;-81
2021/05/16 03:23:13;;;;;;;1.27;0.80;;;9.50;99.90;;;;;;5134701;27;20446;-81
2021/05/16 03:25:39;;;;;;;0.83;0.80;;;9.40;99.90;;;;;;5135023;27;20858;-81
2021/05/16 03:28:06;;;;;;;1.10;0.90;;;9.40;99.90;;;;;;5134846;27;20442;-82
2021/05/16 03:30:33;;;;;;;0.90;0.90;;;9.40;99.90;;;;;;5134959;27;20517;-82
2021/05/16 03:32:59;;;;;;;1.20;0.83;;;9.30;99.90;;;;;;5134896;27;20457;-82
2021/05/16 03:35:26;;;;;;;1.10;1.00;;;9.30;99.90;;;;;;5134891;27;20449;-82
2021/05/16 03:37:52;;;;;;;2.80;1.10;;;9.30;99.90;;;;;;5134450;27;20933;-82
2021/05/16 03:40:19;;;;;;;0.70;0.70;;;9.30;99.90;;;;;;5134411;27;20850;-82
2021/05/16 03:42:46;;;;;;;1.37;1.00;;;9.30;99.90;;;;;;5134912;27;20446;-81
2021/05/16 03:45:13;;;;;;;1.40;0.90;;;9.20;99.90;;;;;;5134742;27;20442;-82
2021/05/16 03:47:40;;;;;;;1.17;0.90;;;9.30;99.90;;;;;;5134683;27;20446;-82
2021/05/16 03:50:08;;;;;;;1.57;1.10;;;9.30;99.90;;;;;;5134251;27;20462;-82
2021/05/16 03:52:35;;;;;;;1.10;0.80;;;9.30;99.90;;;;;;5134647;27;20559;-82
2021/05/16 03:55:01;;;;;;;1.57;0.83;;;9.30;99.90;;;;;;5134605;27;20814;-82
2021/05/16 03:57:28;;;;;;;3.60;1.00;;;9.30;99.90;;;;;;5134565;27;20449;-82
2021/05/16 03:59:55;;;;;;;1.20;0.70;;;9.30;99.90;;;;;;5134335;27;20489;-82
2021/05/16 04:02:21;;;;;;;2.97;0.90;;;9.30;99.90;;;;;;5134471;27;20446;-82
2021/05/16 04:04:47;;;;;;;1.37;1.10;;;9.30;99.90;;;;;;5134301;27;20803;-82
2021/05/16 04:07:14;;;;;;;0.83;0.83;;;9.30;99.90;;;;;;5133837;27;20534;-82
2021/05/16 04:09:40;;;;;;;0.83;0.83;;;9.40;99.90;;;;;;5134017;27;20977;-82
2021/05/16 04:12:07;;;;;;;1.20;0.83;;;9.30;99.90;;;;;;5134413;27;20472;-81
2021/05/16 04:14:34;;;;;;;0.87;0.80;;;9.30;99.90;;;;;;5134067;27;20446;-82
2021/05/16 04:17:00;;;;;;;1.30;0.80;;;9.30;99.90;;;;;;5134309;27;20442;-81
2021/05/16 04:19:27;;;;;;;1.40;0.70;;;9.30;99.90;;;;;;5134186;27;20482;-82
2021/05/16 04:21:53;;;;;;;0.70;0.70;;;9.20;99.90;;;;;;5134298;27;20490;-82
2021/05/16 04:24:19;;;;;;;0.67;0.67;;;9.20;99.90;;;;;;5134254;27;20442;-82
2021/05/16 04:26:45;;;;;;;2.53;0.83;;;9.20;99.90;;;;;;5134223;27;20442;-81
2021/05/16 04:29:12;;;;;;;2.33;0.70;;;9.20;99.90;;;;;;5134174;27;20469;-76
2021/05/16 04:31:39;;;;;;;0.70;0.70;;;9.20;99.90;;;;;;5133896;27;20949;-76
2021/05/16 04:34:06;;;;;;;0.93;0.60;;;9.20;99.90;;;;;;5134188;27;20439;-76
2021/05/16 04:36:32;;;;;;;0.60;0.60;;;9.30;99.90;;;;;;5134181;27;20450;-76
2021/05/16 04:38:58;;;;;;;0.70;0.60;;;9.30;99.90;;;;;;5133974;27;20482;-76
2021/05/16 04:41:24;;;;;;;0.60;0.60;;;9.40;99.90;;;;;;5133826;27;20442;-76
2021/05/16 04:43:50;;;;;;;0.80;0.50;;;9.40;99.90;;;;;;5134093;27;20447;-75
2021/05/16 04:46:17;;;;;;;0.70;0.70;;;9.40;99.90;;;;;;5134046;27;20438;-75
2021/05/16 04:48:44;;;;;;;3.60;1.07;;;9.40;99.90;;;;;;5133623;27;20462;-75
2021/05/16 04:51:10;;;;;;;2.10;0.63;;;9.40;99.90;;;;;;5134032;27;20441;-76
2021/05/16 04:53:37;;;;;;;1.43;0.60;;;9.50;99.90;;;;;;5133995;27;20442;-75
2021/05/16 04:56:04;;;;;;;0.90;0.60;;;9.50;99.90;;;;;;5133677;27;20945;-81
2021/05/16 04:58:31;;;;;;;0.60;0.60;;;9.50;99.90;;;;;;5134376;27;20486;-81
2021/05/16 05:00:57;;;;;;;1.33;0.50;;;9.50;99.90;;;;;;5133898;27;20836;-81
2021/05/16 05:03:24;;;;;;;0.90;0.60;;;9.60;99.90;;;;;;5133909;27;20446;-81
2021/05/16 05:05:53;;;;;;;2.97;0.60;;;9.60;99.90;;;;;;5133880;27;20438;-81
2021/05/16 05:08:20;;;;;;;1.13;1.03;;;9.60;99.90;;;;;;5133428;27;20546;-81
2021/05/16 05:10:47;;;;;;;0.60;0.60;;;9.70;99.90;;;;;;5133837;27;20438;-81
2021/05/16 05:13:13;;;;;;;3.33;0.70;;;9.70;99.90;;;;;;5133805;27;20442;-81
2021/05/16 05:15:39;;;;;;;0.80;0.63;;;9.80;99.90;;;;;;5135107;27;20437;-80
2021/05/16 05:18:06;;;;;;;1.17;0.60;;;9.80;99.90;;;;;;5137433;27;20446;-81
2021/05/16 05:20:32;;;;;;;0.60;0.57;;;9.90;99.90;;;;;;5137412;27;20481;-80
2021/05/16 05:23:00;;;;;;;0.70;0.60;;;9.80;99.90;;;;;;5137438;27;20446;-81
2021/05/16 05:25:26;;;;;;;1.50;0.73;;;9.80;99.90;;;;;;5137407;27;20473;-81
2021/05/16 05:27:54;;;;;;;0.70;0.60;;;9.80;99.90;;;;;;5136976;27;20967;-76
2021/05/16 05:30:22;;;;;;;0.80;0.80;;;9.90;99.90;;;;;;5137311;27;20487;-76
2021/05/16 05:32:48;;;;;;;0.73;0.60;;;9.90;99.90;;;;;;5136937;27;20442;-76
2021/05/16 05:35:15;;;;;;;0.50;0.50;;;9.90;99.90;;;;;;5137204;27;20446;-76
2021/05/16 05:37:41;;;;;;;2.07;0.60;;;9.90;99.90;;;;;;5137134;27;20499;-76
2021/05/16 05:40:09;;;;;;;1.17;0.50;;;10.00;99.90;;;;;;5136926;27;20508;-76
2021/05/16 05:42:36;;;;;;;0.80;0.60;;;10.00;99.90;;;;;;5137081;27;20845;-76
2021/05/16 05:45:02;;;;;;;1.10;0.50;;;10.00;99.90;;;;;;5136948;27;20453;-76
2021/05/16 05:47:28;;;;;;;1.27;0.73;;;10.00;99.90;;;;;;5136984;27;20442;-76
2021/05/16 05:49:54;;;;;;;1.60;0.60;;;10.20;99.90;;;;;;5136803;27;20466;-76
2021/05/16 05:52:21;;;;;;;0.70;0.70;;;10.30;99.90;;;;;;5136578;27;20441;-76
2021/05/16 05:54:47;;;;;;;1.13;0.60;;;10.30;99.90;;;;;;5136775;27;20503;-77
2021/05/16 05:57:14;;;;;;;0.60;0.60;;;10.40;99.90;;;;;;5136757;27;20442;-76
2021/05/16 05:59:40;;;;;;;0.57;0.57;;;10.60;99.90;;;;;;5136214;27;20968;-76
2021/05/16 06:02:08;;;;;;;2.47;0.70;;;10.90;99.90;;;;;;5136356;27;20806;-76
2021/05/16 06:04:34;;;;;;;3.70;0.97;;;11.30;99.90;;;;;;5136640;27;20537;-76
2021/05/16 06:07:00;;;;;;;1.37;0.50;;;11.40;99.90;;;;;;5136391;27;20445;-76
2021/05/16 06:09:27;;;;;;;1.43;0.50;;;11.70;99.90;;;;;;5136486;27;20791;-76
2021/05/16 06:11:53;;;;;;;0.80;0.50;;;11.80;99.90;;;;;;5136482;27;20525;-76
2021/05/16 06:14:20;;;;;;;0.60;0.50;;;12.20;99.90;;;;;;5136479;27;20859;-76
2021/05/16 06:16:47;;;;;;;2.10;0.50;;;12.40;99.90;;;;;;5136020;27;20808;-76
2021/05/16 06:19:13;;;;;;;0.50;0.50;;;12.60;99.90;;;;;;5135899;27;20511;-76
2021/05/16 06:21:39;;;;;;;1.37;0.50;;;12.50;99.90;;;;;;5136318;27;20442;-76
2021/05/16 06:24:07;;;;;;;1.33;0.40;;;12.50;99.90;;;;;;5135909;27;20967;-76
2021/05/16 06:26:36;;;;;;;1.33;0.50;;;12.90;99.90;;;;;;5136120;27;20446;-76
2021/05/16 06:29:03;;;;;;;0.50;0.50;;;13.20;99.90;;;;;;5136068;27;20502;-76
2021/05/16 06:31:30;;;;;;;1.33;0.50;;;13.70;99.90;;;;;;5135775;27;20933;-76
2021/05/16 06:33:57;;;;;;;1.47;0.50;;;14.10;99.90;;;;;;5135726;27;20450;-76
2021/05/16 06:36:23;;;;;;;0.70;0.40;;;14.20;99.90;;;;;;5135667;27;20446;-76
2021/05/16 06:38:50;;;;;;;1.03;0.50;;;14.30;99.90;;;;;;5135752;27;20475;-77
2021/05/16 06:41:16;;;;;;;0.93;0.50;;;14.50;99.90;;;;;;5135819;27;20450;-77
2021/05/16 06:43:43;;;;;;;0.80;0.50;;;14.90;99.90;;;;;;5135862;27;20453;-77
2021/05/16 06:46:09;;;;;;;3.50;0.70;;;15.30;99.90;;;;;;5135426;27;20941;-81
2021/05/16 06:48:36;;;;;;;0.50;0.40;;;15.70;99.90;;;;;;5135712;27;20457;-82
2021/05/16 06:51:03;;;;;;;0.80;0.40;;;16.20;99.90;;;;;;5135690;27;20445;-81
2021/05/16 06:53:29;;;;;;;0.50;0.40;;;16.50;99.90;;;;;;5135666;27;20541;-81
2021/05/16 06:55:56;;;;;;;0.47;0.47;;;16.60;99.90;;;;;;5135622;27;20438;-82
2021/05/16 06:58:22;;;;;;;0.50;0.50;;;16.20;99.90;;;;;;5135477;27;20535;-82
2021/05/16 07:03:34;;;;;;;2.00;0.60;;;15.10;99.90;;;;;;5120184;22;20497;-77
2021/05/16 07:06:02;;;;;;;2.53;0.70;;;14.90;99.90;;;;;;5053946;28;20933;-77
2021/05/16 07:08:28;;;;;;;1.27;0.50;;;14.60;99.90;;;;;;5059232;28;20465;-77
2021/05/16 07:10:54;;;;;;;0.63;0.60;;;14.50;99.90;;;;;;5074142;28;20422;-77
2021/05/16 07:13:21;;;;;;;0.90;0.50;;;14.60;99.90;;;;;;5073764;28;20421;-77
2021/05/16 07:15:47;;;;;;;0.50;0.40;;;14.90;99.90;;;;;;5074016;28;20445;-77
2021/05/16 07:18:13;;;;;;;1.07;0.50;;;15.10;99.90;;;;;;5073695;28;20457;-77
2021/05/16 07:20:40;;;;;;;1.10;1.00;;;14.90;99.90;;;;;;5073616;28;21064;-77
2021/05/16 07:23:08;;;;;;;1.37;0.57;;;14.70;99.90;;;;;;5074289;28;20815;-77
2021/05/16 07:25:34;;;;;;;0.40;0.40;;;14.60;99.90;;;;;;5073972;28;20413;-77
2021/05/16 07:28:00;;;;;;;0.50;0.50;;;14.70;99.90;;;;;;5074418;28;20845;-77
2021/05/16 07:30:27;;;;;;;2.07;0.50;;;14.80;99.90;;;;;;5073500;28;20444;-77
2021/05/16 07:32:53;;;;;;;0.80;0.80;;;15.20;99.90;;;;;;5073344;28;20849;-77
2021/05/16 07:35:20;;;;;;;1.07;0.50;;;16.10;99.90;;;;;;5073687;28;20444;-77
2021/05/16 07:37:46;;;;;;;2.73;0.73;;;17.40;99.90;;;;;;5073300;28;20872;-77
2021/05/16 07:40:14;;;;;;;1.40;0.50;;;19.40;99.90;;;;;;5073442;28;20484;-78
2021/05/16 07:42:40;;;;;;;1.00;0.50;;;21.00;92.70;;;;;;5073596;28;20539;-77
2021/05/16 07:45:08;;;;;;;0.85;0.60;;;22.00;89.90;;;;;;5073523;28;20213;-78
2021/05/16 07:47:34;;;;;;;1.02;0.70;;;23.40;76.10;;;;;;5073496;28;20201;-78
2021/05/16 07:50:01;;;;;;;0.80;0.80;;;23.40;73.00;;;;;;5073208;28;20288;-78
2021/05/16 07:52:27;;;;;;;2.80;0.60;;;22.40;76.20;;;;;;5073189;28;20692;-77
2021/05/16 07:54:53;;;;;;;2.40;0.70;;;20.90;80.80;;;;;;5073449;28;20256;-77
2021/05/16 07:57:20;;;;;;;2.10;0.63;;;19.60;86.50;;;;;;5073452;28;20206;-82
2021/05/16 07:59:47;;;;;;;0.50;0.50;;;18.70;90.30;;;;;;5073198;28;20485;-82
2021/05/16 08:02:13;;;;;;;1.00;0.60;;;17.60;92.40;;;;;;5073011;28;20534;-81
2021/05/16 08:04:39;;;;;;;0.90;0.70;;;16.90;96.90;;;;;;5072986;28;20948;-82
2021/05/16 08:07:05;;;;;;;2.33;0.50;;;16.10;99.90;;;;;;5073191;28;20458;-83
2021/05/16 08:09:32;;;;;;;0.97;0.87;;;16.00;99.90;;;;;;5072745;28;20472;-82
2021/05/16 08:11:58;;;;;;;1.10;0.63;;;17.30;99.90;;;;;;5073117;28;20460;-82
2021/05/16 08:14:27;;;;;;;0.90;0.90;;;18.80;99.90;;;;;;5072695;28;20453;-82
2021/05/16 08:16:54;;;;;;;1.03;0.83;;;19.80;96.80;;;;;;5072696;28;20869;-82
2021/05/16 08:19:20;;;;;;;0.77;0.60;;;20.70;94.80;;;;;;5072837;28;20999;-82
2021/05/16 08:21:47;;;;;;;1.87;0.60;;;21.00;86.10;;;;;;5073212;28;20459;-83
2021/05/16 08:24:14;;;;;;;1.07;0.60;;;20.70;82.40;;;;;;5073085;28;20458;-83
2021/05/16 08:26:41;;;;;;;0.83;0.60;;;20.50;82.60;;;;;;5073268;28;20947;-83
2021/05/16 08:29:07;;;;;;;1.57;0.63;;;20.50;84.30;;;;;;5073729;28;20555;-83
2021/05/16 08:31:36;;;;;;;1.30;0.60;;;20.10;83.10;;;;;;5072804;28;20440;-82
2021/05/16 08:34:04;;;;;;;4.10;0.73;;;20.40;82.50;;;;;;5073168;28;20441;-82
2021/05/16 08:36:33;;;;;;;1.37;0.60;;;20.60;80.10;;;;;;5073142;28;20444;-78
2021/05/16 08:39:00;;;;;;;0.77;0.60;;;21.00;79.60;;;;;;5073048;28;20493;-79
2021/05/16 08:41:26;;;;;;;1.25;0.80;;;21.90;78.00;;;;;;5072959;28;20815;-79
2021/05/16 08:43:54;;;;;;;3.92;0.75;;;23.00;74.40;;;;;;5072972;28;20601;-79
2021/05/16 08:46:21;;;;;;;2.13;0.75;;;23.90;73.80;;;;;;5072605;28;20209;-79
2021/05/16 08:48:48;;;;;;;2.25;1.08;;;23.50;64.80;;;;;;5072812;28;20226;-82
2021/05/16 08:51:15;;;;;;;1.98;0.80;;;23.00;65.00;;;;;;5076318;28;20202;-82
2021/05/16 08:53:42;;;;;;;0.82;0.63;;;22.60;66.80;;;;;;5076455;28;20564;-82
2021/05/16 08:56:09;;;;;;;1.65;0.65;;;22.40;66.70;;;;;;5076371;28;20212;-79
2021/05/16 08:58:37;;;;;;;0.80;0.68;;;22.00;68.40;;;;;;5076570;28;20244;-79
2021/05/16 09:01:17;;;;;;;1.33;0.90;;;21.60;67.60;;;;;;5076530;28;20205;-79
2021/05/16 09:03:43;;;;;;;1.23;0.80;;;20.70;68.70;;;;;;5076780;28;20638;-78
2021/05/16 09:06:10;;;;;;;2.60;0.70;;;20.10;69.20;;;;;;5076450;28;20445;-79
2021/05/16 09:08:36;;;;;;;1.47;0.70;;;19.60;71.00;;;;;;5075952;28;20460;-78
2021/05/16 09:11:03;;;;;;;0.90;0.70;;;19.50;73.20;;;;;;5076244;28;20446;-79
2021/05/16 09:13:30;;;;;;;1.60;0.70;;;19.70;70.80;;;;;;5076415;28;20799;-79
2021/05/16 09:16:04;;;;;;;1.20;0.70;;;19.50;71.50;;;;;;5076212;28;20443;-79
2021/05/16 09:18:36;;;;;;;1.60;0.67;;;19.30;71.10;;;;;;5076186;28;20472;-81
2021/05/16 09:21:24;;;;;;;2.07;0.70;;;19.00;71.60;;;;;;5076236;28;20440;-82
2021/05/16 09:23:52;;;;;;;1.73;0.73;;;18.70;70.40;;;;;;5076263;28;20496;-83
2021/05/16 09:26:18;;;;;;;3.03;0.83;;;18.70;70.10;;;;;;5076233;28;20458;-82
2021/05/16 09:28:44;;;;;;;1.37;0.80;;;18.90;70.40;;;;;;5075881;28;20477;-83
2021/05/16 09:31:10;;;;;;;2.77;0.70;;;19.30;70.20;;;;;;5076075;28;20490;-82
2021/05/16 09:33:37;;;;;;;0.90;0.70;;;19.90;69.80;;;;;;5075840;28;20947;-83
2021/05/16 09:36:08;;;;;;;2.60;1.53;;;20.70;71.80;;;;;;5076013;28;20448;-79
2021/05/16 09:38:35;;;;;;;3.07;1.63;;;21.50;67.50;;;;;;5075883;28;20460;-79
2021/05/16 09:41:03;;;;;;;3.33;1.03;;;22.00;63.30;;;;;;5075858;28;20440;-80
2021/05/16 09:43:31;;;;;;;1.70;0.87;;;22.50;61.00;;;;;;5075877;28;20441;-79
2021/05/16 09:46:01;;;;;;;1.70;0.80;;;22.70;62.50;;;;;;5075812;28;20452;-83
2021/05/16 09:48:37;;;;;;;2.53;0.77;;;22.90;61.30;;;;;;5075411;28;20225;-83
2021/05/16 09:51:18;;;;;;;2.20;0.73;;;22.80;61.00;;;;;;5075668;28;20186;-83
2021/05/16 09:53:54;;;;;;;1.50;0.80;;;22.70;59.90;;;;;;5076218;28;20198;-84
2021/05/16 09:56:23;;;;;;;1.40;0.70;;;22.20;60.00;;;;;;5075446;28;20660;-84
2021/05/16 09:58:51;;;;;;;2.80;1.47;;;21.60;59.70;;;;;;5075179;28;20230;-84
2021/05/16 10:01:18;;;;;;;1.60;0.70;;;21.00;60.50;;;;;;5074996;28;20459;-78
2021/05/16 10:03:47;;;;;;;2.17;0.90;;;20.20;60.20;;;;;;5075209;28;20798;-78
2021/05/16 10:06:13;;;;;;;0.63;0.60;;;19.80;61.30;;;;;;5075199;28;20527;-77
2021/05/16 10:08:42;;;;;;;3.77;1.00;;;19.30;62.10;;;;;;5075384;28;20476;-77
2021/05/16 10:11:09;;;;;;;3.60;1.10;;;19.00;65.60;;;;;;5075327;28;20491;-77
2021/05/16 10:13:37;;;;;;;1.83;0.80;;;18.90;67.40;;;;;;5075312;28;20440;-83
2021/05/16 10:16:04;;;;;;;0.93;0.70;;;19.20;67.70;;;;;;5075174;28;20819;-84
2021/05/16 10:18:33;;;;;;;1.80;0.80;;;19.10;67.00;;;;;;5074885;28;20983;-77
2021/05/16 10:21:04;;;;;;;2.03;0.60;;;19.00;65.50;;;;;;5075041;28;21007;-77
2021/05/16 10:23:32;;;;;;;1.47;0.53;;;18.80;66.50;;;;;;5075130;28;20440;-83
2021/05/16 10:26:19;;;;;;;1.13;0.93;;;18.50;68.60;;;;;;5074834;28;20499;-79
2021/05/16 10:29:04;;;;;;;1.30;0.80;;;18.20;74.00;;;;;;5074667;28;21015;-78
2021/05/16 10:31:51;;;;;;;2.60;1.03;;;17.80;78.60;;;;;;5074570;28;20808;-78
2021/05/16 10:34:39;;;;;;;1.53;0.90;;;17.60;82.20;;;;;;5074927;28;20421;-83
2021/05/16 10:37:06;;;;;;;2.73;0.80;;;17.50;82.00;;;;;;5074881;28;20940;-84
2021/05/16 10:39:49;;;;;;;1.00;0.70;;;17.70;78.40;;;;;;5074352;28;20489;-83
2021/05/16 10:42:17;;;;;;;3.37;1.13;;;18.20;76.10;;;;;;5074594;28;20817;-84
2021/05/16 10:44:56;;;;;;;1.23;0.60;;;18.20;76.00;;;;;;5075337;28;20414;-82
2021/05/16 10:47:48;;;;;;;1.30;0.70;;;18.20;73.80;;;;;;5074772;28;20422;-84
2021/05/16 10:50:51;;;;;;;1.67;1.00;;;18.40;75.60;;;;;;5074601;28;21021;-84
2021/05/16 10:53:23;;;;;;;1.73;0.70;;;19.40;72.10;;;;;;5076354;28;20955;-82
2021/05/16 10:55:51;;;;;;;1.60;0.80;;;20.30;67.80;;;;;;5074672;28;20824;-82
2021/05/16 10:58:41;;;;;;;1.27;0.70;;;21.00;65.30;;;;;;5074432;28;20445;-84
2021/05/16 11:01:08;;;;;;;1.63;0.80;;;21.70;61.50;;;;;;5074809;28;20526;-84
2021/05/16 11:03:49;;;;;;;1.83;0.50;;;21.90;59.80;;;;;;5074382;28;20480;-83
2021/05/16 11:06:17;;;;;;;1.50;0.70;;;22.00;59.60;;;;;;5074638;28;20435;-84
2021/05/16 11:09:18;;;;;;;2.50;0.77;;;21.80;61.30;;;;;;5074474;28;20507;-83
2021/05/16 11:11:58;;;;;;;1.23;0.70;;;21.40;62.60;;;;;;5075078;28;20428;-84
2021/05/16 11:14:28;;;;;;;1.17;0.80;;;21.20;62.00;;;;;;5073691;28;20440;-84
2021/05/16 11:16:57;;;;;;;2.00;0.80;;;21.00;62.70;;;;;;5074244;28;20449;-79
2021/05/16 11:19:26;;;;;;;1.90;0.90;;;20.80;63.00;;;;;;5073834;28;20488;-79
2021/05/16 11:21:53;;;;;;;1.60;0.97;;;20.50;62.70;;;;;;5073994;28;20513;-78
2021/05/16 11:24:35;;;;;;;1.83;0.63;;;20.40;63.00;;;;;;5073906;28;20444;-79
2021/05/16 11:27:12;;;;;;;1.67;0.70;;;20.10;61.80;;;;;;5073459;28;20888;-80
2021/05/16 11:29:39;;;;;;;1.93;0.70;;;20.00;65.00;;;;;;5073513;28;20461;-78
2021/05/16 11:32:06;;;;;;;1.20;0.50;;;19.70;64.60;;;;;;5073719;28;20490;-79
2021/05/16 11:34:33;;;;;;;0.97;0.50;;;19.70;62.40;;;;;;5073676;28;20445;-78
2021/05/16 11:37:15;;;;;;;1.53;0.60;;;19.70;65.10;;;;;;5073838;28;20428;-78
2021/05/16 11:39:41;;;;;;;3.53;0.60;;;19.80;63.90;;;;;;5073552;28;20484;-78
2021/05/16 11:42:08;;;;;;;0.90;0.60;;;19.70;60.00;;;;;;5073648;28;20434;-78
2021/05/16 11:44:34;;;;;;;2.13;0.80;;;19.70;64.00;;;;;;5073624;28;20429;-78
2021/05/16 11:47:01;;;;;;;1.87;0.80;;;19.60;63.70;;;;;;5073565;28;20437;-78
2021/05/16 11:49:30;;;;;;;1.40;0.60;;;19.70;64.70;;;;;;5073108;28;20468;-78
2021/05/16 11:51:58;;;;;;;5.83;0.80;;;19.60;61.60;;;;;;5073277;28;20956;-78
2021/05/16 11:54:27;;;;;;;1.27;0.60;;;19.50;64.00;;;;;;5073484;28;20440;-78
2021/05/16 11:56:53;;;;;;;2.10;0.60;;;19.40;62.00;;;;;;5073508;28;20428;-77
2021/05/16 11:59:28;;;;;;;1.20;0.63;;;19.30;62.50;;;;;;5072861;28;20484;-78
2021/05/16 12:01:54;;;;;;;2.50;0.80;;;19.20;62.20;;;;;;5073112;28;20479;-78
2021/05/16 12:04:21;;;;;;;2.60;0.70;;;19.10;65.30;;;;;;5073205;28;20455;-78
2021/05/16 12:06:50;;;;;;;1.63;0.60;;;19.40;64.60;;;;;;5073409;28;20429;-78
2021/05/16 12:09:19;;;;;;;0.80;0.50;;;19.40;63.30;;;;;;5072176;28;20468;-78
2021/05/16 12:11:47;;;;;;;2.10;0.70;;;19.60;64.50;;;;;;5072713;28;20479;-78
2021/05/16 12:14:15;;;;;;;2.50;0.80;;;19.30;61.10;;;;;;5073229;28;20425;-78
2021/05/16 12:16:50;;;;;;;4.00;0.60;;;19.20;63.70;;;;;;5073319;28;20436;-78
2021/05/16 12:19:19;;;;;;;2.43;0.80;;;19.40;65.20;;;;;;5073123;28;20492;-78
2021/05/16 12:21:50;;;;;;;1.27;0.70;;;19.30;63.30;;;;;;5073232;28;20437;-79
2021/05/16 12:24:20;;;;;;;1.00;0.60;;;19.40;63.00;;;;;;5073946;28;20504;-79
2021/05/16 12:26:46;;;;;;;1.17;0.50;;;19.20;61.90;;;;;;5077052;28;20458;-78
2021/05/16 12:29:14;;;;;;;1.37;0.53;;;19.20;60.40;;;;;;5076894;28;21003;-78
2021/05/16 12:31:41;;;;;;;1.80;1.00;;;19.00;62.90;;;;;;5077224;28;20429;-78
2021/05/16 12:34:08;;;;;;;1.17;0.70;;;18.80;64.80;;;;;;5076900;28;20952;-78
2021/05/16 12:36:50;;;;;;;2.40;0.60;;;18.60;63.50;;;;;;5077153;28;20443;-78
2021/05/16 12:39:34;;;;;;;1.07;0.97;;;18.30;64.70;;;;;;5077051;28;20480;-78
2021/05/16 12:42:01;;;;;;;0.80;0.60;;;18.00;64.70;;;;;;5077351;28;20418;-78
2021/05/16 12:44:27;;;;;;;0.70;0.50;;;17.70;65.70;;;;;;5076652;28;20967;-78
2021/05/16 12:46:55;;;;;;;2.20;0.70;;;17.70;65.50;;;;;;5076662;28;20432;-77
2021/05/16 12:49:22;;;;;;;1.47;0.70;;;17.70;66.00;;;;;;5076791;28;20511;-78
2021/05/16 12:51:57;;;;;;;0.60;0.50;;;17.80;65.20;;;;;;5076548;28;20939;-78
2021/05/16 12:54:25;;;;;;;1.90;1.10;;;17.80;63.60;;;;;;5076791;28;20497;-78
2021/05/16 12:57:00;;;;;;;1.43;0.80;;;17.80;64.70;;;;;;5076678;28;20519;-78
2021/05/16 12:59:33;;;;;;;2.50;0.90;;;17.90;64.90;;;;;;5076590;28;20491;-77